Time;durP1;ratioP1;P1;durP2;ratioP2;P2;SDS_P1;SDS_P2;PMS_P1;PMS_P2;Temp;Humidity;BMP_temperature;BMP_pressure;BME280_temperature;BME280_humidity;BME280_pressure;Samples;Min_cycle;Max_cycle;Signal;HPM_P1;HPM_P2
2022/11/12 00:00:49;;;;;;;;;;;;;;;4.95;100.00;100022.75;2575415;28;19925;-78
2022/11/12 00:02:05;;;;;;;;;;;;;;;4.92;100.00;100025.28;2575977;28;20291;-78
2022/11/12 00:03:20;;;;;;;;;;;;;;;5.11;100.00;100030.84;2575169;28;19929;-78
2022/11/12 00:04:37;;;;;;;;;;;;;;;5.03;100.00;100029.81;2575357;28;19933;-84
2022/11/12 00:05:53;;;;;;;;;;;;;;;5.06;100.00;100022.09;2575237;28;19926;-79
2022/11/12 00:07:08;;;;;;;;;;;;;;;5.18;100.00;100017.16;2574981;28;19976;-79
2022/11/12 00:08:24;;;;;;;;;;;;;;;5.17;100.00;100017.13;2575829;28;20569;-79
2022/11/12 00:09:39;;;;;;;;;;;;;;;4.94;100.00;100017.53;2575374;28;19979;-80
2022/11/12 00:10:55;;;;;;;;;;;;;;;4.89;100.00;100013.97;2575183;28;20691;-78
2022/11/12 00:12:10;;;;;;;;;;;;;;;5.26;100.00;100013.81;2575722;28;19926;-78
2022/11/12 00:13:26;;;;;;;;;;;;;;;5.29;100.00;100017.34;2564745;28;19926;-79
2022/11/12 00:14:42;;;;;;;;;;;;;;;5.32;100.00;100024.34;2558335;28;20619;-79
2022/11/12 00:16:04;;;;;;;;;;;;;;;5.29;100.00;100024.25;2568763;28;20577;-79
2022/11/12 00:17:20;;;;;;;;;;;;;;;5.28;100.00;100022.50;2575151;28;19925;-80
2022/11/12 00:18:38;;;;;;;;;;;;;;;5.29;100.00;100026.84;2575591;28;20697;-80
2022/11/12 00:19:56;;;;;;;;;;;;;;;5.36;100.00;100031.34;2574211;28;19926;-80
2022/11/12 00:21:11;;;;;;;;;;;;;;;5.33;100.00;100031.28;2574831;28;19972;-80
2022/11/12 00:22:33;;;;;;;;;;;;;;;5.33;100.00;100032.13;2575217;28;19972;-86
2022/11/12 00:23:55;;;;;;;;;;;;;;;5.41;100.00;100027.09;2575362;28;19926;-78
2022/11/12 00:25:11;;;;;;;;;;;;;;;5.37;100.00;100038.28;2575370;28;20102;-80
2022/11/12 00:26:27;;;;;;;;;;;;;;;5.03;100.00;100035.00;2574711;28;19926;-81
2022/11/12 00:27:42;;;;;;;;;;;;;;;4.84;100.00;100034.63;2575272;28;19944;-79
2022/11/12 00:28:57;;;;;;;;;;;;;;;4.87;100.00;100037.28;2574790;28;19941;-79
2022/11/12 00:30:13;;;;;;;;;;;;;;;4.98;100.00;100036.63;2575444;28;19926;-78
2022/11/12 00:31:28;;;;;;;;;;;;;;;4.50;100.00;100036.50;2575824;28;19936;-78
2022/11/12 00:32:44;;;;;;;;;;;;;;;4.62;100.00;100035.88;2575601;28;19929;-79
2022/11/12 00:34:00;;;;;;;;;;;;;;;4.70;100.00;100038.66;2575415;28;19948;-79
2022/11/12 00:35:15;;;;;;;;;;;;;;;4.87;100.00;100037.28;2575511;28;20316;-79
2022/11/12 00:36:31;;;;;;;;;;;;;;;4.68;100.00;100040.34;2574831;28;20381;-79
2022/11/12 00:37:54;;;;;;;;;;;;;;;4.98;100.00;100034.03;2572347;28;19926;-80
2022/11/12 00:39:09;;;;;;;;;;;;;;;4.96;100.00;100036.63;2575193;28;19930;-79
2022/11/12 00:40:25;;;;;;;;;;;;;;;5.00;100.00;100037.53;2574498;28;20269;-79
2022/11/12 00:41:40;;;;;;;;;;;;;;;4.82;100.00;100038.91;2575230;28;19932;-78
2022/11/12 00:42:56;;;;;;;;;;;;;;;5.04;100.00;100044.56;2575257;28;19976;-79
2022/11/12 00:44:11;;;;;;;;;;;;;;;5.07;100.00;100040.28;2577125;28;20003;-79
2022/11/12 00:45:27;;;;;;;;;;;;;;;5.25;100.00;100040.63;2577555;28;20451;-79
2022/11/12 00:46:42;;;;;;;;;;;;;;;5.24;100.00;100050.16;2577608;28;19929;-79
2022/11/12 00:47:58;;;;;;;;;;;;;;;5.38;100.00;100040.03;2577408;28;19929;-79
2022/11/12 00:49:13;;;;;;;;;;;;;;;5.43;100.00;100046.16;2577289;28;20035;-79
2022/11/12 00:50:29;;;;;;;;;;;;;;;5.44;100.00;100041.88;2577685;28;19937;-79
2022/11/12 00:51:44;;;;;;;;;;;;;;;5.03;100.00;100042.78;2577190;28;19930;-78
2022/11/12 00:52:59;;;;;;;;;;;;;;;4.99;100.00;100038.38;2577837;28;20529;-79
2022/11/12 00:54:15;;;;;;;;;;;;;;;4.69;100.00;100042.97;2577258;28;19957;-78
2022/11/12 00:55:31;;;;;;;;;;;;;;;4.59;100.00;100049.66;2576523;28;19936;-78
2022/11/12 00:56:46;;;;;;;;;;;;;;;4.63;100.00;100040.22;2577686;28;19926;-78
2022/11/12 00:58:02;;;;;;;;;;;;;;;4.57;100.00;100037.50;2577043;28;20086;-79
2022/11/12 00:59:17;;;;;;;;;;;;;;;4.85;100.00;100038.13;2577465;28;20288;-78
2022/11/12 01:00:33;;;;;;;;;;;;;;;4.75;100.00;100034.41;2576906;28;19925;-79
2022/11/12 01:01:48;;;;;;;;;;;;;;;4.81;100.00;100042.34;2566714;28;19934;-79
2022/11/12 01:03:04;;;;;;;;;;;;;;;4.94;100.00;100044.38;2570860;28;19926;-79
2022/11/12 01:04:19;;;;;;;;;;;;;;;4.90;100.00;100036.47;2577543;28;19933;-78
2022/11/12 01:05:35;;;;;;;;;;;;;;;5.09;100.00;100043.78;2576854;28;19929;-78
2022/11/12 01:06:50;;;;;;;;;;;;;;;5.06;100.00;100037.69;2577472;28;19929;-79
2022/11/12 01:08:05;;;;;;;;;;;;;;;4.82;100.00;100044.09;2577785;28;19953;-79
2022/11/12 01:09:21;;;;;;;;;;;;;;;4.90;100.00;100045.16;2577363;28;19922;-79
2022/11/12 01:10:36;;;;;;;;;;;;;;;5.25;100.00;100048.41;2577052;28;19944;-78
2022/11/12 01:11:52;;;;;;;;;;;;;;;5.33;100.00;100054.66;2577140;28;20391;-79
2022/11/12 01:13:07;;;;;;;;;;;;;;;5.39;100.00;100051.31;2576955;28;19921;-78
2022/11/12 01:14:23;;;;;;;;;;;;;;;5.43;100.00;100043.56;2577006;28;20398;-78
2022/11/12 01:15:39;;;;;;;;;;;;;;;5.47;100.00;100040.22;2576928;28;19936;-78
2022/11/12 01:16:54;;;;;;;;;;;;;;;5.54;100.00;100045.50;2576779;28;19941;-79
2022/11/12 01:18:10;;;;;;;;;;;;;;;5.48;100.00;100041.06;2576956;28;19981;-81
2022/11/12 01:19:25;;;;;;;;;;;;;;;5.40;100.00;100040.06;2577467;28;19933;-78
2022/11/12 01:20:41;;;;;;;;;;;;;;;5.36;100.00;100037.38;2576852;28;19926;-78
2022/11/12 01:21:56;;;;;;;;;;;;;;;5.20;100.00;100035.34;2577245;28;19934;-78
2022/11/12 01:23:11;;;;;;;;;;;;;;;5.07;100.00;100042.88;2576885;28;19928;-78
2022/11/12 01:24:27;;;;;;;;;;;;;;;5.18;100.00;100037.94;2577191;28;19921;-78
2022/11/12 01:25:43;;;;;;;;;;;;;;;5.31;100.00;100043.38;2577114;28;19922;-78
2022/11/12 01:26:58;;;;;;;;;;;;;;;5.28;100.00;100038.09;2577180;28;19930;-78
2022/11/12 01:28:13;;;;;;;;;;;;;;;5.04;100.00;100035.03;2577376;28;19932;-78
2022/11/12 01:29:29;;;;;;;;;;;;;;;5.14;100.00;100036.09;2577043;28;19932;-78
2022/11/12 01:30:45;;;;;;;;;;;;;;;4.97;100.00;100030.59;2576985;28;19926;-78
2022/11/12 01:32:00;;;;;;;;;;;;;;;5.00;100.00;100037.53;2576697;28;20624;-78
2022/11/12 01:33:15;;;;;;;;;;;;;;;5.20;100.00;100030.16;2577526;28;19932;-78
2022/11/12 01:34:31;;;;;;;;;;;;;;;5.20;100.00;100031.03;2577219;28;20358;-80
2022/11/12 01:35:46;;;;;;;;;;;;;;;4.86;100.00;100032.06;2576666;28;19933;-77
2022/11/12 01:37:02;;;;;;;;;;;;;;;5.13;100.00;100031.75;2577521;28;19926;-78
2022/11/12 01:38:17;;;;;;;;;;;;;;;5.33;100.00;100034.72;2577242;28;20376;-79
2022/11/12 01:39:33;;;;;;;;;;;;;;;5.28;100.00;100030.28;2576444;28;19932;-78
2022/11/12 01:40:48;;;;;;;;;;;;;;;5.33;100.00;100033.88;2576438;28;19956;-79
2022/11/12 01:42:04;;;;;;;;;;;;;;;5.26;100.00;100032.00;2576348;28;20057;-79
2022/11/12 01:43:19;;;;;;;;;;;;;;;5.32;100.00;100034.72;2576911;28;20001;-78
2022/11/12 01:44:37;;;;;;;;;;;;;;;5.35;100.00;100030.44;2576619;28;19925;-78
2022/11/12 01:45:53;;;;;;;;;;;;;;;5.19;100.00;100034.47;2577098;28;19961;-78
2022/11/12 01:47:11;;;;;;;;;;;;;;;5.09;100.00;100041.19;2577192;28;19930;-78
2022/11/12 01:48:45;;;;;;;;;;;;;;;5.12;100.00;100037.78;2577080;28;19966;-78
2022/11/12 01:50:14;;;;;;;;;;;;;;;5.06;100.00;100035.94;2577208;28;19925;-78
2022/11/12 01:51:34;;;;;;;;;;;;;;;5.01;100.00;100039.28;2576390;28;19925;-78
2022/11/12 01:52:52;;;;;;;;;;;;;;;5.02;100.00;100038.44;2576799;28;19926;-79
2022/11/12 01:54:09;;;;;;;;;;;;;;;4.92;100.00;100046.06;2576696;28;20399;-78
2022/11/12 01:55:27;;;;;;;;;;;;;;;4.82;100.00;100044.09;2576805;28;19952;-78
2022/11/12 01:56:43;;;;;;;;;;;;;;;4.71;100.00;100040.41;2576891;28;19932;-78
2022/11/12 01:58:02;;;;;;;;;;;;;;;4.52;100.00;100046.03;2576810;28;20288;-78
2022/11/12 01:59:22;;;;;;;;;;;;;;;4.60;100.00;100041.03;2576765;28;19972;-78
2022/11/12 02:00:39;;;;;;;;;;;;;;;4.52;100.00;100047.78;2577329;28;19921;-78
2022/11/12 02:01:55;;;;;;;;;;;;;;;4.70;100.00;100044.72;2576255;28;20020;-79
2022/11/12 02:03:28;;;;;;;;;;;;;;;4.67;100.00;100044.63;2576601;28;20372;-78
2022/11/12 02:04:44;;;;;;;;;;;;;;;4.57;100.00;100040.09;2577137;28;19952;-78
2022/11/12 02:06:02;;;;;;;;;;;;;;;4.75;100.00;100042.22;2576887;28;19925;-79
2022/11/12 02:07:17;;;;;;;;;;;;;;;4.96;100.00;100044.41;2576645;28;19949;-79
2022/11/12 02:08:34;;;;;;;;;;;;;;;4.92;100.00;100034.78;2576280;28;19965;-78
2022/11/12 02:09:49;;;;;;;;;;;;;;;4.95;100.00;100045.22;2576049;28;19930;-78
2022/11/12 02:11:10;;;;;;;;;;;;;;;4.90;100.00;100037.38;2576391;28;20846;-81
2022/11/12 02:14:01;;;;;;;;;;;;;;;4.60;100.00;100038.44;2576783;28;19980;-79
2022/11/12 02:15:16;;;;;;;;;;;;;;;4.53;100.00;100031.38;2576057;28;19926;-78
2022/11/12 02:16:34;;;;;;;;;;;;;;;4.48;100.00;100038.19;2576459;28;19926;-78
2022/11/12 02:17:50;;;;;;;;;;;;;;;4.33;100.00;100034.41;2576736;28;19932;-79
2022/11/12 02:19:07;;;;;;;;;;;;;;;4.61;100.00;100032.44;2576821;28;19925;-78
2022/11/12 02:20:22;;;;;;;;;;;;;;;4.81;100.00;100034.56;2576299;28;19932;-78
2022/11/12 02:21:38;;;;;;;;;;;;;;;4.74;100.00;100030.06;2566050;28;19922;-78
2022/11/12 02:22:54;;;;;;;;;;;;;;;4.77;100.00;100035.34;2569431;28;19928;-78
2022/11/12 02:24:12;;;;;;;;;;;;;;;4.77;100.00;100036.22;2576886;28;19925;-78
2022/11/12 02:25:28;;;;;;;;;;;;;;;4.81;100.00;100038.03;2576990;28;19925;-81
2022/11/12 02:26:45;;;;;;;;;;;;;;;4.93;100.00;100037.44;2576627;28;20277;-79
2022/11/12 02:28:05;;;;;;;;;;;;;;;4.90;100.00;100031.28;2576342;28;19926;-78
2022/11/12 02:29:21;;;;;;;;;;;;;;;4.93;100.00;100032.22;2576353;28;20328;-79
2022/11/12 02:30:38;;;;;;;;;;;;;;;4.85;100.00;100027.72;2576794;28;19925;-79
2022/11/12 02:31:53;;;;;;;;;;;;;;;4.93;100.00;100034.84;2576320;28;19925;-79
2022/11/12 02:33:09;;;;;;;;;;;;;;;4.94;100.00;100033.09;2576725;28;19925;-78
2022/11/12 02:34:24;;;;;;;;;;;;;;;5.00;100.00;100032.34;2575841;28;20295;-79
2022/11/12 02:35:40;;;;;;;;;;;;;;;4.83;100.00;100032.88;2576876;28;19981;-78
2022/11/12 02:36:55;;;;;;;;;;;;;;;4.90;100.00;100037.38;2576830;28;19929;-79
2022/11/12 02:38:11;;;;;;;;;;;;;;;5.02;100.00;100028.06;2577009;28;19922;-78
2022/11/12 02:39:26;;;;;;;;;;;;;;;4.78;100.00;100025.00;2576805;28;19926;-78
2022/11/12 02:40:42;;;;;;;;;;;;;;;4.93;100.00;100029.63;2575856;28;20012;-78
2022/11/12 02:41:58;;;;;;;;;;;;;;;4.97;100.00;100029.69;2575499;28;19925;-79
2022/11/12 02:43:14;;;;;;;;;;;;;;;5.04;100.00;100029.84;2577022;28;19921;-78
2022/11/12 02:44:29;;;;;;;;;;;;;;;4.87;100.00;100028.63;2576040;28;19921;-79
2022/11/12 02:45:45;;;;;;;;;;;;;;;4.91;100.00;100030.44;2576376;28;19921;-77
2022/11/12 02:47:00;;;;;;;;;;;;;;;4.78;100.00;100029.31;2576638;28;19929;-77
2022/11/12 02:48:16;;;;;;;;;;;;;;;4.93;100.00;100033.94;2576331;28;19925;-79
2022/11/12 02:49:31;;;;;;;;;;;;;;;4.83;100.00;100025.09;2576492;28;19933;-77
2022/11/12 02:50:47;;;;;;;;;;;;;;;5.02;100.00;100026.34;2576450;28;19925;-79
2022/11/12 02:52:02;;;;;;;;;;;;;;;4.72;100.00;100031.78;2576367;28;19926;-79
2022/11/12 02:53:18;;;;;;;;;;;;;;;4.58;100.00;100026.28;2576666;28;20455;-79
2022/11/12 02:54:33;;;;;;;;;;;;;;;4.70;100.00;100023.97;2576476;28;20534;-79
2022/11/12 02:55:48;;;;;;;;;;;;;;;4.91;100.00;100025.25;2575987;28;20361;-79
2022/11/12 02:57:04;;;;;;;;;;;;;;;4.71;100.00;100028.31;2576158;28;20130;-79
2022/11/12 02:58:21;;;;;;;;;;;;;;;4.91;100.00;100018.34;2576323;28;20481;-78
2022/11/12 02:59:36;;;;;;;;;;;;;;;4.75;100.00;100024.03;2576507;28;19979;-78
2022/11/12 03:00:52;;;;;;;;;;;;;;;4.93;100.00;100028.75;2565060;28;20124;-78
2022/11/12 03:02:07;;;;;;;;;;;;;;;4.69;100.00;100027.41;2570042;28;19988;-79
2022/11/12 03:03:23;;;;;;;;;;;;;;;4.69;100.00;100029.13;2576002;28;20288;-79
2022/11/12 03:04:39;;;;;;;;;;;;;;;4.88;100.00;100030.38;2576056;28;20282;-79
2022/11/12 03:06:00;;;;;;;;;;;;;;;4.70;100.00;100033.47;2574955;28;20507;-79
2022/11/12 03:07:15;;;;;;;;;;;;;;;4.91;100.00;100023.53;2576351;28;20008;-79
2022/11/12 03:08:31;;;;;;;;;;;;;;;5.06;100.00;100025.56;2576400;28;20372;-79
2022/11/12 03:09:46;;;;;;;;;;;;;;;4.85;100.00;100025.13;2576071;28;19922;-79
2022/11/12 03:11:09;;;;;;;;;;;;;;;4.67;100.00;100029.06;2575841;28;19937;-78
2022/11/12 03:12:25;;;;;;;;;;;;;;;4.70;100.00;100039.53;2576178;28;19933;-79
2022/11/12 03:13:40;;;;;;;;;;;;;;;4.64;100.00;100023.81;2576282;28;19921;-78
2022/11/12 03:14:56;;;;;;;;;;;;;;;4.52;100.00;100029.63;2576343;28;20280;-79
2022/11/12 03:16:11;;;;;;;;;;;;;;;4.41;100.00;100033.69;2576269;28;19932;-79
2022/11/12 03:17:27;;;;;;;;;;;;;;;4.55;100.00;100031.41;2576062;28;19968;-80
2022/11/12 03:18:42;;;;;;;;;;;;;;;4.56;100.00;100036.63;2576520;28;19926;-79
2022/11/12 03:19:58;;;;;;;;;;;;;;;4.53;100.00;100028.78;2576274;28;19951;-79
2022/11/12 03:21:13;;;;;;;;;;;;;;;4.51;100.00;100033.91;2575923;28;19926;-80
2022/11/12 03:22:28;;;;;;;;;;;;;;;4.60;100.00;100034.97;2574892;28;19934;-78
2022/11/12 03:23:44;;;;;;;;;;;;;;;4.81;100.00;100032.84;2575896;28;19929;-80
2022/11/12 03:24:59;;;;;;;;;;;;;;;4.74;100.00;100036.16;2575433;28;19926;-79
2022/11/12 03:26:15;;;;;;;;;;;;;;;4.94;100.00;100040.88;2575869;28;19984;-79
2022/11/12 03:27:30;;;;;;;;;;;;;;;4.95;100.00;100032.25;2576292;28;19961;-79
2022/11/12 03:28:46;;;;;;;;;;;;;;;5.04;100.00;100040.22;2575973;28;19988;-78
2022/11/12 03:30:01;;;;;;;;;;;;;;;5.00;100.00;100037.53;2576062;28;20512;-79
2022/11/12 03:31:17;;;;;;;;;;;;;;;4.85;100.00;100028.59;2575809;28;19925;-80
2022/11/12 03:32:32;;;;;;;;;;;;;;;5.02;100.00;100034.13;2575685;28;19968;-79
2022/11/12 03:33:48;;;;;;;;;;;;;;;5.09;100.00;100030.81;2575857;28;20284;-78
2022/11/12 03:35:03;;;;;;;;;;;;;;;4.80;100.00;100028.50;2575623;28;19926;-77
2022/11/12 03:36:19;;;;;;;;;;;;;;;4.98;100.00;100034.94;2575942;28;20420;-79
2022/11/12 03:37:34;;;;;;;;;;;;;;;5.07;100.00;100034.25;2575257;28;19922;-77
2022/11/12 03:38:50;;;;;;;;;;;;;;;4.97;100.00;100029.69;2576129;28;19922;-77
2022/11/12 03:40:05;;;;;;;;;;;;;;;4.97;100.00;100030.59;2575050;28;19926;-77
2022/11/12 03:41:21;;;;;;;;;;;;;;;5.03;100.00;100028.09;2575953;28;19925;-77
2022/11/12 03:42:36;;;;;;;;;;;;;;;4.80;100.00;100027.63;2575859;28;19960;-78
2022/11/12 03:43:52;;;;;;;;;;;;;;;4.95;100.00;100030.53;2575721;28;19925;-78
2022/11/12 03:45:07;;;;;;;;;;;;;;;5.05;100.00;100030.75;2575607;28;19926;-79
2022/11/12 03:46:23;;;;;;;;;;;;;;;4.99;100.00;100028.91;2575279;28;20014;-79
2022/11/12 03:47:45;;;;;;;;;;;;;;;4.80;100.00;100027.63;2575366;28;19934;-80
2022/11/12 03:49:01;;;;;;;;;;;;;;;4.60;100.00;100030.66;2575949;28;20032;-80
2022/11/12 03:50:17;;;;;;;;;;;;;;;4.71;100.00;100033.50;2576026;28;20368;-77
2022/11/12 03:51:33;;;;;;;;;;;;;;;4.86;100.00;100034.66;2575426;28;19930;-78
2022/11/12 03:52:49;;;;;;;;;;;;;;;4.89;100.00;100030.44;2575998;28;19929;-78
2022/11/12 03:54:05;;;;;;;;;;;;;;;5.02;100.00;100030.66;2574835;28;20384;-78
2022/11/12 03:55:21;;;;;;;;;;;;;;;4.93;100.00;100033.94;2575860;28;19948;-77
2022/11/12 03:56:36;;;;;;;;;;;;;;;5.15;100.00;100027.47;2575575;28;19932;-77
2022/11/12 03:57:52;;;;;;;;;;;;;;;5.16;100.00;100021.41;2575638;28;19928;-78
2022/11/12 03:59:08;;;;;;;;;;;;;;;5.02;100.00;100025.47;2575520;28;20301;-78
2022/11/12 04:00:24;;;;;;;;;;;;;;;5.11;100.00;100023.06;2575793;28;19926;-77
2022/11/12 04:01:39;;;;;;;;;;;;;;;4.91;100.00;100020.94;2575056;28;19929;-82
2022/11/12 04:02:55;;;;;;;;;;;;;;;5.01;100.00;100019.41;2575787;28;20016;-79
2022/11/12 04:04:11;;;;;;;;;;;;;;;4.87;100.00;100015.66;2575554;28;19961;-78
2022/11/12 04:08:35;;;;;;;;;;;;;;;5.01;100.00;100018.53;2575494;28;19925;-78
2022/11/12 04:09:50;;;;;;;;;;;;;;;5.17;100.00;100022.31;2575431;28;19932;-78
2022/11/12 04:11:11;;;;;;;;;;;;;;;5.18;100.00;100021.47;2575991;28;19925;-78
2022/11/12 04:14:01;;;;;;;;;;;;;;;5.25;100.00;100020.75;2575586;28;19945;-78
2022/11/12 04:15:17;;;;;;;;;;;;;;;5.28;100.00;100023.41;2575330;28;19961;-79
2022/11/12 04:22:48;;;;;;;;;;;;;;;5.27;100.00;100018.16;2575614;28;19969;-81
2022/11/12 04:24:04;;;;;;;;;;;;;;;5.14;100.00;100015.31;2574857;28;20376;-78
2022/11/12 04:26:53;;;;;;;;;;;;;;;4.59;100.00;100020.25;2575561;28;19922;-78
2022/11/12 04:28:09;;;;;;;;;;;;;;;4.35;100.00;100016.28;2575230;28;19957;-78
2022/11/12 04:30:59;;;;;;;;;;;;;;;4.48;100.00;100014.84;2575747;28;19922;-78
2022/11/12 04:32:14;;;;;;;;;;;;;;;4.60;100.00;100009.03;2575253;28;19971;-78
2022/11/12 04:33:30;;;;;;;;;;;;;;;4.62;100.00;100017.72;2575464;28;19933;-79
2022/11/12 04:34:45;;;;;;;;;;;;;;;4.74;100.00;100010.22;2575272;28;20377;-78
2022/11/12 04:36:00;;;;;;;;;;;;;;;4.52;100.00;100009.72;2575145;28;19925;-78
2022/11/12 04:37:16;;;;;;;;;;;;;;;4.37;100.00;100012.88;2575339;28;20365;-77
2022/11/12 04:38:31;;;;;;;;;;;;;;;4.59;100.00;100015.94;2575678;28;19933;-77
2022/11/12 04:39:47;;;;;;;;;;;;;;;4.42;100.00;100014.69;2575581;28;20462;-78
2022/11/12 04:45:47;;;;;;;;;;;;;;;4.35;100.00;100005.91;2575571;28;20325;-78
2022/11/12 04:47:02;;;;;;;;;;;;;;;4.15;100.00;100008.91;2575633;28;19933;-78
2022/11/12 04:48:18;;;;;;;;;;;;;;;4.41;100.00;100010.34;2575068;28;19926;-78
2022/11/12 04:49:34;;;;;;;;;;;;;;;4.60;100.00;100003.84;2575336;28;20368;-78
2022/11/12 04:50:52;;;;;;;;;;;;;;;4.74;100.00;100001.53;2575100;28;19968;-78
2022/11/12 04:52:08;;;;;;;;;;;;;;;4.87;100.00;100008.72;2575362;28;19925;-79
2022/11/12 04:53:23;;;;;;;;;;;;;;;4.81;100.00;100003.44;2575345;28;19949;-78
2022/11/12 04:54:39;;;;;;;;;;;;;;;4.94;100.00;100007.13;2575365;28;19930;-79
2022/11/12 04:55:55;;;;;;;;;;;;;;;4.88;100.00;100007.88;2575550;28;20418;-77
2022/11/12 04:57:11;;;;;;;;;;;;;;;5.05;100.00;100004.78;2574762;28;20381;-81
2022/11/12 04:58:26;;;;;;;;;;;;;;;5.01;100.00;100009.03;2575285;28;19926;-78
2022/11/12 04:59:42;;;;;;;;;;;;;;;4.98;100.00;100010.69;2575333;28;19926;-77
2022/11/12 05:00:57;;;;;;;;;;;;;;;5.02;100.00;100005.59;2575192;28;19932;-77
2022/11/12 05:02:13;;;;;;;;;;;;;;;4.61;100.00;100003.91;2574215;28;19930;-77
2022/11/12 05:03:29;;;;;;;;;;;;;;;4.73;100.00;100011.06;2575476;28;20012;-78
2022/11/12 05:04:44;;;;;;;;;;;;;;;4.72;100.00;100008.41;2575005;28;19929;-78
2022/11/12 05:06:49;;;;;;;;;;;;;;;4.77;100.00;100012.88;2575428;28;19949;-78
2022/11/12 05:07:39;;;;;;;;;;;;;;;4.83;100.00;100006.06;2575188;28;19937;-78
2022/11/12 05:08:54;;;;;;;;;;;;;;;4.85;100.00;100000.03;2575099;28;19929;-78
2022/11/12 05:10:10;;;;;;;;;;;;;;;5.14;100.00;100002.34;2575095;28;19925;-78
2022/11/12 05:11:25;;;;;;;;;;;;;;;5.01;100.00;100003.84;2575056;28;19926;-78
2022/11/12 05:12:42;;;;;;;;;;;;;;;5.09;100.00;100006.59;2575153;28;20282;-79
2022/11/12 05:13:57;;;;;;;;;;;;;;;4.99;100.00;100004.63;2575346;28;19976;-79
2022/11/12 05:15:13;;;;;;;;;;;;;;;5.13;100.00;100004.94;2574910;28;19926;-78
2022/11/12 05:16:28;;;;;;;;;;;;;;;5.12;100.00;100005.78;2575441;28;19921;-78
2022/11/12 05:17:44;;;;;;;;;;;;;;;5.06;100.00;100007.38;2575259;28;20536;-78
2022/11/12 05:18:59;;;;;;;;;;;;;;;5.06;100.00;99999.59;2575081;28;21104;-79
2022/11/12 05:20:15;;;;;;;;;;;;;;;5.06;100.00;100006.53;2575392;28;19925;-79
2022/11/12 05:23:05;;;;;;;;;;;;;;;5.02;100.00;100007.28;2575173;28;19925;-79
2022/11/12 05:24:20;;;;;;;;;;;;;;;4.81;100.00;100006.03;2575435;28;19980;-79
2022/11/12 05:25:36;;;;;;;;;;;;;;;4.87;100.00;100010.47;2575356;28;20309;-79
2022/11/12 05:26:51;;;;;;;;;;;;;;;4.56;100.00;100005.50;2575379;28;19925;-79
2022/11/12 05:28:07;;;;;;;;;;;;;;;4.59;100.00;100007.28;2574697;28;20341;-78
2022/11/12 05:29:22;;;;;;;;;;;;;;;4.81;100.00;100008.63;2575591;28;20995;-78
2022/11/12 05:30:37;;;;;;;;;;;;;;;4.74;100.00;100007.63;2577327;28;20286;-78
2022/11/12 05:31:53;;;;;;;;;;;;;;;4.82;100.00;100007.78;2577285;28;19925;-79
2022/11/12 05:33:09;;;;;;;;;;;;;;;4.86;100.00;100004.38;2576489;28;19988;-79
2022/11/12 05:34:25;;;;;;;;;;;;;;;4.88;100.00;100002.69;2577281;28;19952;-79
2022/11/12 05:35:40;;;;;;;;;;;;;;;4.80;100.00;100004.28;2577167;28;19956;-79
2022/11/12 05:36:55;;;;;;;;;;;;;;;4.86;100.00;100006.13;2577496;28;20036;-79
2022/11/12 05:38:11;;;;;;;;;;;;;;;4.64;100.00;100014.34;2576510;28;19932;-79
2022/11/12 05:39:27;;;;;;;;;;;;;;;4.63;100.00;100015.19;2576238;28;20815;-79
2022/11/12 05:40:45;;;;;;;;;;;;;;;4.74;100.00;100018.00;2576991;28;20012;-79
2022/11/12 05:42:00;;;;;;;;;;;;;;;4.72;100.00;100016.19;2576636;28;19922;-79
2022/11/12 05:43:16;;;;;;;;;;;;;;;4.82;100.00;100023.34;2577037;28;20277;-78
2022/11/12 05:44:31;;;;;;;;;;;;;;;4.75;100.00;100027.53;2576208;28;19973;-81
2022/11/12 05:45:47;;;;;;;;;;;;;;;4.82;100.00;100020.75;2571509;28;19957;-79
2022/11/12 05:48:01;;;;;;;;;;;;;;;4.39;100.00;100025.88;2626165;27;19924;-78
2022/11/12 05:49:17;;;;;;;;;;;;;;;4.61;100.00;100022.06;2618220;28;65298;-78
2022/11/12 05:50:32;;;;;;;;;;;;;;;4.81;100.00;100026.78;2620051;27;61318;-79
2022/11/12 05:51:47;;;;;;;;;;;;;;;4.77;100.00;100024.97;2629059;27;19989;-78
2022/11/12 05:53:03;;;;;;;;;;;;;;;4.63;100.00;100025.56;2636298;28;19927;-78
2022/11/12 05:54:18;;;;;;;;;;;;;;;4.34;100.00;100023.19;2635836;28;19932;-78
2022/11/12 05:55:34;;;;;;;;;;;;;;;4.58;100.00;100024.56;2635986;28;20332;-79
2022/11/12 05:56:50;;;;;;;;;;;;;;;4.49;100.00;100030.41;2635900;28;19939;-78
2022/11/12 05:58:05;;;;;;;;;;;;;;;4.59;100.00;100025.44;2635857;28;19972;-79
2022/11/12 05:59:21;;;;;;;;;;;;;;;4.34;100.00;100036.16;2636141;28;20402;-79
2022/11/12 06:00:40;;;;;;;;;;;;;;;4.45;100.00;100032.91;2635835;28;20011;-79
2022/11/12 06:01:55;;;;;;;;;;;;;;;4.46;100.00;100038.13;2635816;28;19932;-78
2022/11/12 06:03:11;;;;;;;;;;;;;;;4.38;100.00;100039.66;2635738;28;19971;-79
2022/11/12 06:04:26;;;;;;;;;;;;;;;4.63;100.00;100033.34;2635925;28;19967;-79
2022/11/12 06:05:42;;;;;;;;;;;;;;;4.80;100.00;100028.50;2635921;28;19969;-79
2022/11/12 06:06:57;;;;;;;;;;;;;;;4.70;100.00;100031.75;2635586;28;21082;-78
2022/11/12 06:08:13;;;;;;;;;;;;;;;4.53;100.00;100034.81;2635693;28;19960;-79
2022/11/12 06:09:28;;;;;;;;;;;;;;;4.71;100.00;100030.03;2635209;28;19962;-81
2022/11/12 06:10:51;;;;;;;;;;;;;;;4.64;100.00;100032.50;2635216;28;19929;-79
2022/11/12 06:12:15;;;;;;;;;;;;;;;4.52;100.00;100034.81;2635002;28;19935;-79
2022/11/12 06:13:30;;;;;;;;;;;;;;;4.71;100.00;100040.41;2635524;28;19942;-79
2022/11/12 06:14:46;;;;;;;;;;;;;;;4.73;100.00;100038.72;2635653;28;19934;-80
2022/11/12 06:16:02;;;;;;;;;;;;;;;4.74;100.00;100035.25;2636005;28;20430;-79
2022/11/12 06:17:17;;;;;;;;;;;;;;;4.76;100.00;100038.81;2633702;28;19930;-80
2022/11/12 06:18:32;;;;;;;;;;;;;;;4.74;100.00;100037.84;2635680;28;19998;-78
2022/11/12 06:19:48;;;;;;;;;;;;;;;4.78;100.00;100040.56;2634515;28;20641;-79
2022/11/12 06:21:23;;;;;;;;;;;;;;;4.78;100.00;100040.56;2635787;28;19924;-79
2022/11/12 06:22:39;;;;;;;;;;;;;;;4.63;100.00;100043.72;2635799;28;19930;-78
2022/11/12 06:23:56;;;;;;;;;;;;;;;4.68;100.00;100041.22;2635114;28;19966;-79
2022/11/12 06:25:11;;;;;;;;;;;;;;;4.47;100.00;100044.19;2633985;28;20010;-78
2022/11/12 06:26:28;;;;;;;;;;;;;;;4.50;100.00;100047.72;2632906;28;19931;-78
2022/11/12 06:27:43;;;;;;;;;;;;;;;4.53;100.00;100042.59;2635289;28;19924;-81
2022/11/12 06:28:59;;;;;;;;;;;;;;;4.30;100.00;100049.88;2635914;28;20354;-78
2022/11/12 06:30:15;;;;;;;;;;;;;;;4.25;100.00;100054.06;2635706;28;19955;-78
2022/11/12 06:31:30;;;;;;;;;;;;;;;4.08;100.00;100053.66;2636234;28;20367;-78
2022/11/12 06:32:46;;;;;;;;;;;;;;;4.30;100.00;100047.28;2635448;28;19970;-78
2022/11/12 06:34:02;;;;;;;;;;;;;;;4.37;100.00;100044.00;2635670;28;19935;-78
2022/11/12 06:35:17;;;;;;;;;;;;;;;4.59;100.00;100047.06;2635563;28;19924;-78
2022/11/12 06:36:33;;;;;;;;;;;;;;;4.42;100.00;100041.50;2635862;28;19923;-79
2022/11/12 06:37:49;;;;;;;;;;;;;;;4.26;100.00;100042.88;2635247;28;19924;-79
2022/11/12 06:39:04;;;;;;;;;;;;;;;4.36;100.00;100041.34;2635787;28;19939;-85
2022/11/12 06:40:20;;;;;;;;;;;;;;;4.38;100.00;100043.16;2635797;28;19938;-78
2022/11/12 06:41:35;;;;;;;;;;;;;;;4.43;100.00;100037.19;2635808;28;19928;-80
2022/11/12 06:42:55;;;;;;;;;;;;;;;4.76;100.00;100037.06;2635595;28;20446;-79
2022/11/12 06:44:10;;;;;;;;;;;;;;;4.49;100.00;100029.56;2635255;28;19985;-81
2022/11/12 06:45:26;;;;;;;;;;;;;;;4.41;100.00;100046.66;2635759;28;20430;-77
2022/11/12 06:46:41;;;;;;;;;;;;;;;4.58;100.00;100039.25;2635874;28;20328;-78
2022/11/12 06:47:57;;;;;;;;;;;;;;;4.79;100.00;100044.03;2645831;28;19997;-77
2022/11/12 06:49:13;;;;;;;;;;;;;;;4.70;100.00;100043.84;2632428;28;20374;-77
2022/11/12 06:50:29;;;;;;;;;;;;;;;4.46;100.00;100043.34;2638379;28;19928;-78
2022/11/12 06:51:45;;;;;;;;;;;;;;;4.33;100.00;100049.97;2645531;28;19927;-76
2022/11/12 06:53:00;;;;;;;;;;;;;;;4.58;100.00;100045.31;2645319;28;19983;-79
2022/11/12 06:54:15;;;;;;;;;;;;;;;4.61;100.00;100049.69;2634373;28;19939;-79